sensor_id;sensor_type;location;lat;lon;timestamp;temperature;humidity
65854;DHT22;52627;48.838;2.402;2023-09-18T00:01:12;21.45;78.80
65854;DHT22;52627;48.838;2.402;2023-09-18T00:04:08;21.45;78.85
65854;DHT22;52627;48.838;2.402;2023-09-18T00:07:08;21.44;78.80
65854;DHT22;52627;48.838;2.402;2023-09-18T00:10:28;21.44;78.85
65854;DHT22;52627;48.838;2.402;2023-09-18T00:13:05;21.42;78.80
65854;DHT22;52627;48.838;2.402;2023-09-18T00:16:01;21.40;78.80
65854;DHT22;52627;48.838;2.402;2023-09-18T00:18:57;21.38;78.81
65854;DHT22;52627;48.838;2.402;2023-09-18T00:22:14;21.36;78.78
65854;DHT22;52627;48.838;2.402;2023-09-18T00:25:07;21.33;78.70
65854;DHT22;52627;48.838;2.402;2023-09-18T00:28:14;21.29;78.70
65854;DHT22;52627;48.838;2.402;2023-09-18T00:30:51;21.26;78.66
65854;DHT22;52627;48.838;2.402;2023-09-18T00:33:30;21.24;78.68
65854;DHT22;52627;48.838;2.402;2023-09-18T00:36:11;21.22;78.60
65854;DHT22;52627;48.838;2.402;2023-09-18T00:38:49;21.18;78.52
65854;DHT22;52627;48.838;2.402;2023-09-18T00:41:29;21.13;78.46
65854;DHT22;52627;48.838;2.402;2023-09-18T00:44:02;21.07;78.41
65854;DHT22;52627;48.838;2.402;2023-09-18T00:46:37;21.02;78.35
65854;DHT22;52627;48.838;2.402;2023-09-18T00:49:12;20.98;78.41
65854;DHT22;52627;48.838;2.402;2023-09-18T00:51:48;20.94;78.32
65854;DHT22;52627;48.838;2.402;2023-09-18T02:03:08;20.41;77.99
65854;DHT22;52627;48.838;2.402;2023-09-18T02:06:11;20.42;78.06
65854;DHT22;52627;48.838;2.402;2023-09-18T02:08:42;20.41;78.02
65854;DHT22;52627;48.838;2.402;2023-09-18T02:11:22;20.42;78.08
65854;DHT22;52627;48.838;2.402;2023-09-18T02:55:00;20.22;78.20
65854;DHT22;52627;48.838;2.402;2023-09-18T07:35:50;20.75;76.97
65854;DHT22;52627;48.838;2.402;2023-09-18T07:38:20;20.75;76.92
65854;DHT22;52627;48.838;2.402;2023-09-18T07:40:48;20.77;76.88
65854;DHT22;52627;48.838;2.402;2023-09-18T07:43:16;20.79;76.80
65854;DHT22;52627;48.838;2.402;2023-09-18T07:45:43;20.81;76.74
65854;DHT22;52627;48.838;2.402;2023-09-18T07:48:11;20.84;76.72
65854;DHT22;52627;48.838;2.402;2023-09-18T07:50:39;20.88;76.70
65854;DHT22;52627;48.838;2.402;2023-09-18T07:53:11;20.92;76.61
65854;DHT22;52627;48.838;2.402;2023-09-18T07:55:39;20.92;76.47
65854;DHT22;52627;48.838;2.402;2023-09-18T07:58:06;20.92;76.41
65854;DHT22;52627;48.838;2.402;2023-09-18T08:00:34;20.93;76.37
65854;DHT22;52627;48.838;2.402;2023-09-18T08:03:01;20.95;76.24
65854;DHT22;52627;48.838;2.402;2023-09-18T08:05:29;20.96;76.20
65854;DHT22;52627;48.838;2.402;2023-09-18T08:07:58;20.98;76.14
65854;DHT22;52627;48.838;2.402;2023-09-18T08:10:26;21.02;76.11
65854;DHT22;52627;48.838;2.402;2023-09-18T08:12:53;21.07;75.97
65854;DHT22;52627;48.838;2.402;2023-09-18T08:15:21;21.07;75.84
65854;DHT22;52627;48.838;2.402;2023-09-18T08:17:49;21.05;75.70
65854;DHT22;52627;48.838;2.402;2023-09-18T08:20:17;21.03;75.55
65854;DHT22;52627;48.838;2.402;2023-09-18T08:22:44;21.02;75.43
65854;DHT22;52627;48.838;2.402;2023-09-18T08:25:12;21.03;75.40
65854;DHT22;52627;48.838;2.402;2023-09-18T08:27:40;21.02;75.25
65854;DHT22;52627;48.838;2.402;2023-09-18T08:30:10;21.02;75.16
65854;DHT22;52627;48.838;2.402;2023-09-18T08:32:39;21.03;75.02
65854;DHT22;52627;48.838;2.402;2023-09-18T08:35:09;21.02;74.88
65854;DHT22;52627;48.838;2.402;2023-09-18T08:37:36;21.03;74.77
65854;DHT22;52627;48.838;2.402;2023-09-18T08:40:04;21.05;74.70
65854;DHT22;52627;48.838;2.402;2023-09-18T08:42:43;21.09;74.57
65854;DHT22;52627;48.838;2.402;2023-09-18T08:45:15;21.11;74.45
65854;DHT22;52627;48.838;2.402;2023-09-18T08:47:50;21.12;74.41
65854;DHT22;52627;48.838;2.402;2023-09-18T08:50:19;21.11;74.30
65854;DHT22;52627;48.838;2.402;2023-09-18T08:52:48;21.12;74.20
65854;DHT22;52627;48.838;2.402;2023-09-18T08:55:16;21.12;74.10
65854;DHT22;52627;48.838;2.402;2023-09-18T08:57:44;21.12;73.97
65854;DHT22;52627;48.838;2.402;2023-09-18T09:00:13;21.13;73.91
65854;DHT22;52627;48.838;2.402;2023-09-18T09:02:44;21.15;73.89
65854;DHT22;52627;48.838;2.402;2023-09-18T09:05:12;21.17;73.79
65854;DHT22;52627;48.838;2.402;2023-09-18T09:07:40;21.18;73.79
65854;DHT22;52627;48.838;2.402;2023-09-18T09:10:07;21.22;73.68
65854;DHT22;52627;48.838;2.402;2023-09-18T09:12:52;21.24;73.60
65854;DHT22;52627;48.838;2.402;2023-09-18T09:15:26;21.27;73.55
65854;DHT22;52627;48.838;2.402;2023-09-18T09:18:06;21.27;73.48
65854;DHT22;52627;48.838;2.402;2023-09-18T09:20:36;21.29;73.40
65854;DHT22;52627;48.838;2.402;2023-09-18T09:23:05;21.32;73.49
65854;DHT22;52627;48.838;2.402;2023-09-18T09:25:34;21.35;73.46
65854;DHT22;52627;48.838;2.402;2023-09-18T09:28:06;21.38;73.41
65854;DHT22;52627;48.838;2.402;2023-09-18T09:30:35;21.43;73.40
65854;DHT22;52627;48.838;2.402;2023-09-18T09:33:04;21.48;73.26
65854;DHT22;52627;48.838;2.402;2023-09-18T09:35:35;21.52;73.20
65854;DHT22;52627;48.838;2.402;2023-09-18T09:38:07;21.56;73.02
65854;DHT22;52627;48.838;2.402;2023-09-18T09:40:39;21.58;72.90
65854;DHT22;52627;48.838;2.402;2023-09-18T09:43:13;21.59;72.79
65854;DHT22;52627;48.838;2.402;2023-09-18T09:45:42;21.63;72.78
65854;DHT22;52627;48.838;2.402;2023-09-18T09:50:14;21.70;72.53
65854;DHT22;52627;48.838;2.402;2023-09-18T09:52:46;21.74;72.28
65854;DHT22;52627;48.838;2.402;2023-09-18T09:57:59;21.83;72.10
65854;DHT22;52627;48.838;2.402;2023-09-18T10:00:32;21.90;72.01
65854;DHT22;52627;48.838;2.402;2023-09-18T10:03:13;21.98;71.95
65854;DHT22;52627;48.838;2.402;2023-09-18T10:05:45;22.05;71.95
65854;DHT22;52627;48.838;2.402;2023-09-18T10:08:19;22.10;71.79
65854;DHT22;52627;48.838;2.402;2023-09-18T10:10:51;22.15;71.54
65854;DHT22;52627;48.838;2.402;2023-09-18T10:16:01;22.21;71.35
65854;DHT22;52627;48.838;2.402;2023-09-18T10:18:40;22.24;71.03
65854;DHT22;52627;48.838;2.402;2023-09-18T10:24:17;22.21;70.58
65854;DHT22;52627;48.838;2.402;2023-09-18T10:29:34;22.13;70.12
65854;DHT22;52627;48.838;2.402;2023-09-18T10:32:04;22.12;70.10
65854;DHT22;52627;48.838;2.402;2023-09-18T10:34:35;22.13;70.10
65854;DHT22;52627;48.838;2.402;2023-09-18T10:37:03;22.16;70.04
65854;DHT22;52627;48.838;2.402;2023-09-18T10:39:35;22.18;69.97
65854;DHT22;52627;48.838;2.402;2023-09-18T10:42:05;22.21;69.74
65854;DHT22;52627;48.838;2.402;2023-09-18T10:44:36;22.21;69.49
65854;DHT22;52627;48.838;2.402;2023-09-18T10:47:08;22.22;69.31
65854;DHT22;52627;48.838;2.402;2023-09-18T10:49:38;22.22;69.13
65854;DHT22;52627;48.838;2.402;2023-09-18T10:52:06;22.25;69.04
65854;DHT22;52627;48.838;2.402;2023-09-18T10:54:42;22.30;68.89
65854;DHT22;52627;48.838;2.402;2023-09-18T10:57:09;22.34;68.74
65854;DHT22;52627;48.838;2.402;2023-09-18T10:59:55;22.37;68.61
65854;DHT22;52627;48.838;2.402;2023-09-18T11:02:25;22.39;68.43
65854;DHT22;52627;48.838;2.402;2023-09-18T11:04:55;22.41;68.34
65854;DHT22;52627;48.838;2.402;2023-09-18T11:07:23;22.44;68.13
65854;DHT22;52627;48.838;2.402;2023-09-18T11:09:52;22.47;67.97
65854;DHT22;52627;48.838;2.402;2023-09-18T11:12:19;22.53;67.85
65854;DHT22;52627;48.838;2.402;2023-09-18T11:15:25;22.55;67.70
65854;DHT22;52627;48.838;2.402;2023-09-18T11:17:59;22.57;67.64
65854;DHT22;52627;48.838;2.402;2023-09-18T11:20:35;22.58;67.44
65854;DHT22;52627;48.838;2.402;2023-09-18T11:23:10;22.62;67.38
65854;DHT22;52627;48.838;2.402;2023-09-18T11:25:47;22.66;67.25
65854;DHT22;52627;48.838;2.402;2023-09-18T11:28:22;22.70;67.04
65854;DHT22;52627;48.838;2.402;2023-09-18T11:30:55;22.74;66.90
65854;DHT22;52627;48.838;2.402;2023-09-18T11:33:29;22.80;66.80
65854;DHT22;52627;48.838;2.402;2023-09-18T11:36:14;22.83;66.63
65854;DHT22;52627;48.838;2.402;2023-09-18T11:39:00;22.87;66.26
65854;DHT22;52627;48.838;2.402;2023-09-18T11:41:32;22.90;66.03
65854;DHT22;52627;48.838;2.402;2023-09-18T11:46:47;22.95;65.66
65854;DHT22;52627;48.838;2.402;2023-09-18T11:49:20;22.97;65.46
65854;DHT22;52627;48.838;2.402;2023-09-18T11:51:49;23.03;65.34
65854;DHT22;52627;48.838;2.402;2023-09-18T11:54:18;23.11;65.12
65854;DHT22;52627;48.838;2.402;2023-09-18T11:56:46;23.16;64.93
65854;DHT22;52627;48.838;2.402;2023-09-18T11:59:14;23.21;64.70
65854;DHT22;52627;48.838;2.402;2023-09-18T12:01:41;23.24;64.51
65854;DHT22;52627;48.838;2.402;2023-09-18T12:04:14;23.29;64.38
65854;DHT22;52627;48.838;2.402;2023-09-18T12:06:41;23.37;64.29
65854;DHT22;52627;48.838;2.402;2023-09-18T12:09:09;23.48;64.12
65854;DHT22;52627;48.838;2.402;2023-09-18T12:11:41;23.59;63.89
65854;DHT22;52627;48.838;2.402;2023-09-18T12:14:09;23.71;63.60
65854;DHT22;52627;48.838;2.402;2023-09-18T12:16:37;23.77;63.36
65854;DHT22;52627;48.838;2.402;2023-09-18T12:19:06;23.82;63.06
65854;DHT22;52627;48.838;2.402;2023-09-18T12:21:41;23.82;62.89
65854;DHT22;52627;48.838;2.402;2023-09-18T12:24:13;23.85;62.83
65854;DHT22;52627;48.838;2.402;2023-09-18T12:26:47;23.87;62.32
65854;DHT22;52627;48.838;2.402;2023-09-18T12:29:15;23.88;61.86
65854;DHT22;52627;48.838;2.402;2023-09-18T12:31:42;23.87;61.70
65854;DHT22;52627;48.838;2.402;2023-09-18T12:34:19;23.88;61.54
65854;DHT22;52627;48.838;2.402;2023-09-18T12:36:51;23.90;61.19
65854;DHT22;52627;48.838;2.402;2023-09-18T12:39:20;23.88;60.97
65854;DHT22;52627;48.838;2.402;2023-09-18T12:41:48;23.87;60.92
65854;DHT22;52627;48.838;2.402;2023-09-18T12:44:16;23.89;60.86
65854;DHT22;52627;48.838;2.402;2023-09-18T12:46:44;23.92;60.58
65854;DHT22;52627;48.838;2.402;2023-09-18T12:51:55;23.88;60.50
65854;DHT22;52627;48.838;2.402;2023-09-18T12:57:09;23.91;60.49
65854;DHT22;52627;48.838;2.402;2023-09-18T12:59:38;23.92;60.85
65854;DHT22;52627;48.838;2.402;2023-09-18T13:02:06;23.90;60.86
65854;DHT22;52627;48.838;2.402;2023-09-18T13:04:34;23.87;60.80
65854;DHT22;52627;48.838;2.402;2023-09-18T13:07:17;23.97;60.76
65854;DHT22;52627;48.838;2.402;2023-09-18T13:12:46;24.47;60.63
65854;DHT22;52627;48.838;2.402;2023-09-18T13:15:25;24.64;60.54
65854;DHT22;52627;48.838;2.402;2023-09-18T13:17:58;24.83;60.43
65854;DHT22;52627;48.838;2.402;2023-09-18T13:20:35;25.01;60.27
65854;DHT22;52627;48.838;2.402;2023-09-18T13:23:03;25.17;60.14
65854;DHT22;52627;48.838;2.402;2023-09-18T13:25:35;25.35;59.91
65854;DHT22;52627;48.838;2.402;2023-09-18T13:28:06;25.51;59.66
65854;DHT22;52627;48.838;2.402;2023-09-18T13:30:35;25.66;59.37
65854;DHT22;52627;48.838;2.402;2023-09-18T13:33:09;25.84;59.16
65854;DHT22;52627;48.838;2.402;2023-09-18T13:35:40;26.00;58.81
65854;DHT22;52627;48.838;2.402;2023-09-18T13:38:09;26.17;58.55
65854;DHT22;52627;48.838;2.402;2023-09-18T13:40:38;26.28;58.20
65854;DHT22;52627;48.838;2.402;2023-09-18T13:43:10;26.40;57.73
65854;DHT22;52627;48.838;2.402;2023-09-18T13:45:38;26.46;57.42
65854;DHT22;52627;48.838;2.402;2023-09-18T13:48:08;26.61;57.18
65854;DHT22;52627;48.838;2.402;2023-09-18T13:50:36;26.74;56.80
65854;DHT22;52627;48.838;2.402;2023-09-18T13:53:05;26.84;56.18
65854;DHT22;52627;48.838;2.402;2023-09-18T13:55:33;26.87;55.41
65854;DHT22;52627;48.838;2.402;2023-09-18T13:58:01;26.72;54.82
65854;DHT22;52627;48.838;2.402;2023-09-18T14:00:32;26.69;54.48
65854;DHT22;52627;48.838;2.402;2023-09-18T14:03:00;26.75;54.15
65854;DHT22;52627;48.838;2.402;2023-09-18T14:05:30;26.86;53.71
65854;DHT22;52627;48.838;2.402;2023-09-18T14:07:58;26.91;53.27
65854;DHT22;52627;48.838;2.402;2023-09-18T14:10:27;26.91;52.98
65854;DHT22;52627;48.838;2.402;2023-09-18T14:12:55;26.90;52.76
65854;DHT22;52627;48.838;2.402;2023-09-18T14:15:24;26.92;52.14
65854;DHT22;52627;48.838;2.402;2023-09-18T14:17:53;26.93;51.52
65854;DHT22;52627;48.838;2.402;2023-09-18T14:20:21;26.98;51.17
65854;DHT22;52627;48.838;2.402;2023-09-18T14:22:49;27.05;50.78
65854;DHT22;52627;48.838;2.402;2023-09-18T14:25:17;27.09;50.52
65854;DHT22;52627;48.838;2.402;2023-09-18T14:27:48;27.13;50.11
65854;DHT22;52627;48.838;2.402;2023-09-18T14:30:15;27.20;49.67
65854;DHT22;52627;48.838;2.402;2023-09-18T14:32:44;27.25;49.42
65854;DHT22;52627;48.838;2.402;2023-09-18T14:35:11;27.35;49.20
65854;DHT22;52627;48.838;2.402;2023-09-18T14:37:41;27.44;48.99
65854;DHT22;52627;48.838;2.402;2023-09-18T14:40:08;27.55;48.76
65854;DHT22;52627;48.838;2.402;2023-09-18T14:42:39;27.64;48.62
65854;DHT22;52627;48.838;2.402;2023-09-18T14:45:07;27.71;48.38
65854;DHT22;52627;48.838;2.402;2023-09-18T14:47:36;27.73;48.12
65854;DHT22;52627;48.838;2.402;2023-09-18T14:50:04;27.72;47.93
65854;DHT22;52627;48.838;2.402;2023-09-18T14:52:33;27.69;47.77
65854;DHT22;52627;48.838;2.402;2023-09-18T14:55:00;27.56;47.72
65854;DHT22;52627;48.838;2.402;2023-09-18T14:57:28;27.31;47.60
65854;DHT22;52627;48.838;2.402;2023-09-18T14:59:56;27.05;47.62
65854;DHT22;52627;48.838;2.402;2023-09-18T15:02:23;26.83;47.67
65854;DHT22;52627;48.838;2.402;2023-09-18T15:04:57;26.61;47.54
65854;DHT22;52627;48.838;2.402;2023-09-18T15:07:26;26.36;47.41
65854;DHT22;52627;48.838;2.402;2023-09-18T15:09:54;26.13;47.42
65854;DHT22;52627;48.838;2.402;2023-09-18T15:12:22;25.96;47.41
65854;DHT22;52627;48.838;2.402;2023-09-18T15:14:49;25.81;47.37
65854;DHT22;52627;48.838;2.402;2023-09-18T15:17:17;25.69;47.38
65854;DHT22;52627;48.838;2.402;2023-09-18T15:19:46;25.56;47.47
65854;DHT22;52627;48.838;2.402;2023-09-18T15:22:15;25.48;47.54
65854;DHT22;52627;48.838;2.402;2023-09-18T15:24:43;25.40;47.64
65854;DHT22;52627;48.838;2.402;2023-09-18T15:27:10;25.32;47.75
65854;DHT22;52627;48.838;2.402;2023-09-18T15:29:38;25.26;47.82
65854;DHT22;52627;48.838;2.402;2023-09-18T15:32:05;25.20;47.96
65854;DHT22;52627;48.838;2.402;2023-09-18T15:34:33;25.15;48.02
65854;DHT22;52627;48.838;2.402;2023-09-18T15:37:00;25.07;48.16
65854;DHT22;52627;48.838;2.402;2023-09-18T15:39:31;25.00;48.26
65854;DHT22;52627;48.838;2.402;2023-09-18T15:42:03;24.92;48.37
65854;DHT22;52627;48.838;2.402;2023-09-18T15:44:30;24.83;48.56
65854;DHT22;52627;48.838;2.402;2023-09-18T15:46:58;24.78;48.74
65854;DHT22;52627;48.838;2.402;2023-09-18T15:49:26;24.71;48.94
65854;DHT22;52627;48.838;2.402;2023-09-18T15:51:54;24.65;49.22
65854;DHT22;52627;48.838;2.402;2023-09-18T15:54:22;24.60;49.47
65854;DHT22;52627;48.838;2.402;2023-09-18T15:56:50;24.56;49.72
65854;DHT22;52627;48.838;2.402;2023-09-18T15:59:17;24.52;50.10
65854;DHT22;52627;48.838;2.402;2023-09-18T16:01:45;24.49;50.50
65854;DHT22;52627;48.838;2.402;2023-09-18T16:04:12;24.43;51.10
65854;DHT22;52627;48.838;2.402;2023-09-18T16:06:40;24.38;51.75
65854;DHT22;52627;48.838;2.402;2023-09-18T16:09:08;24.29;52.31
65854;DHT22;52627;48.838;2.402;2023-09-18T16:11:37;24.22;52.76
65854;DHT22;52627;48.838;2.402;2023-09-18T16:14:04;24.17;53.19
65854;DHT22;52627;48.838;2.402;2023-09-18T16:16:32;24.07;53.23
65854;DHT22;52627;48.838;2.402;2023-09-18T16:19:01;23.98;53.20
65854;DHT22;52627;48.838;2.402;2023-09-18T16:21:29;23.87;53.24
65854;DHT22;52627;48.838;2.402;2023-09-18T16:23:58;23.75;53.42
65854;DHT22;52627;48.838;2.402;2023-09-18T16:26:26;23.68;53.58
65854;DHT22;52627;48.838;2.402;2023-09-18T16:28:54;23.60;53.70
65854;DHT22;52627;48.838;2.402;2023-09-18T16:31:21;23.56;53.78
65854;DHT22;52627;48.838;2.402;2023-09-18T16:33:49;23.50;53.89
65854;DHT22;52627;48.838;2.402;2023-09-18T16:36:17;23.47;53.94
65854;DHT22;52627;48.838;2.402;2023-09-18T16:38:44;23.43;54.06
65854;DHT22;52627;48.838;2.402;2023-09-18T16:41:12;23.42;54.18
65854;DHT22;52627;48.838;2.402;2023-09-18T16:43:39;23.40;54.29
65854;DHT22;52627;48.838;2.402;2023-09-18T16:46:07;23.39;54.34
65854;DHT22;52627;48.838;2.402;2023-09-18T16:48:34;23.36;54.47
65854;DHT22;52627;48.838;2.402;2023-09-18T16:51:02;23.31;54.58
65854;DHT22;52627;48.838;2.402;2023-09-18T16:53:31;23.29;54.68
65854;DHT22;52627;48.838;2.402;2023-09-18T16:55:59;23.25;54.76
65854;DHT22;52627;48.838;2.402;2023-09-18T16:58:26;23.24;54.93
65854;DHT22;52627;48.838;2.402;2023-09-18T17:00:55;23.23;55.00
65854;DHT22;52627;48.838;2.402;2023-09-18T17:03:23;23.22;55.10
65854;DHT22;52627;48.838;2.402;2023-09-18T17:05:51;23.19;55.22
65854;DHT22;52627;48.838;2.402;2023-09-18T17:08:19;23.13;55.30
65854;DHT22;52627;48.838;2.402;2023-09-18T17:10:47;23.06;55.41
65854;DHT22;52627;48.838;2.402;2023-09-18T17:13:15;22.97;55.52
65854;DHT22;52627;48.838;2.402;2023-09-18T17:15:42;22.92;55.65
65854;DHT22;52627;48.838;2.402;2023-09-18T17:18:10;22.87;55.82
65854;DHT22;52627;48.838;2.402;2023-09-18T17:20:40;22.78;55.96
65854;DHT22;52627;48.838;2.402;2023-09-18T17:23:07;22.73;56.12
65854;DHT22;52627;48.838;2.402;2023-09-18T17:25:35;22.67;56.29
65854;DHT22;52627;48.838;2.402;2023-09-18T17:28:02;22.63;56.44
65854;DHT22;52627;48.838;2.402;2023-09-18T17:30:31;22.60;56.67
65854;DHT22;52627;48.838;2.402;2023-09-18T17:32:58;22.56;56.89
65854;DHT22;52627;48.838;2.402;2023-09-18T17:35:26;22.50;57.11
65854;DHT22;52627;48.838;2.402;2023-09-18T17:37:54;22.46;57.29
65854;DHT22;52627;48.838;2.402;2023-09-18T17:40:22;22.43;57.47
65854;DHT22;52627;48.838;2.402;2023-09-18T17:42:49;22.39;57.71
65854;DHT22;52627;48.838;2.402;2023-09-18T17:45:17;22.35;57.92
65854;DHT22;52627;48.838;2.402;2023-09-18T17:47:47;22.33;58.38
65854;DHT22;52627;48.838;2.402;2023-09-18T17:50:14;22.26;59.52
65854;DHT22;52627;48.838;2.402;2023-09-18T17:52:42;22.13;60.40
65854;DHT22;52627;48.838;2.402;2023-09-18T17:55:11;21.96;61.81
65854;DHT22;52627;48.838;2.402;2023-09-18T17:57:39;21.62;63.75
65854;DHT22;52627;48.838;2.402;2023-09-18T18:00:07;21.17;65.74
65854;DHT22;52627;48.838;2.402;2023-09-18T18:02:42;20.69;67.17
65854;DHT22;52627;48.838;2.402;2023-09-18T18:05:11;20.28;67.89
65854;DHT22;52627;48.838;2.402;2023-09-18T18:07:39;20.01;68.52
65854;DHT22;52627;48.838;2.402;2023-09-18T18:10:06;19.82;69.16
65854;DHT22;52627;48.838;2.402;2023-09-18T18:12:37;19.66;69.72
65854;DHT22;52627;48.838;2.402;2023-09-18T18:15:06;19.50;70.31
65854;DHT22;52627;48.838;2.402;2023-09-18T18:17:37;19.35;70.83
65854;DHT22;52627;48.838;2.402;2023-09-18T18:20:05;19.22;71.16
65854;DHT22;52627;48.838;2.402;2023-09-18T18:22:34;19.10;71.40
65854;DHT22;52627;48.838;2.402;2023-09-18T18:25:01;19.02;71.81
65854;DHT22;52627;48.838;2.402;2023-09-18T18:27:29;18.91;72.02
65854;DHT22;52627;48.838;2.402;2023-09-18T18:29:58;18.78;72.39
65854;DHT22;52627;48.838;2.402;2023-09-18T18:32:25;18.69;72.69
65854;DHT22;52627;48.838;2.402;2023-09-18T18:34:53;18.63;72.99
65854;DHT22;52627;48.838;2.402;2023-09-18T18:37:22;18.56;73.34
65854;DHT22;52627;48.838;2.402;2023-09-18T18:39:51;18.51;73.55
65854;DHT22;52627;48.838;2.402;2023-09-18T18:42:18;18.50;73.93
65854;DHT22;52627;48.838;2.402;2023-09-18T18:44:46;18.48;74.17
65854;DHT22;52627;48.838;2.402;2023-09-18T18:47:15;18.48;74.41
65854;DHT22;52627;48.838;2.402;2023-09-18T18:49:42;18.46;74.61
65854;DHT22;52627;48.838;2.402;2023-09-18T18:52:11;18.45;74.81
65854;DHT22;52627;48.838;2.402;2023-09-18T18:54:39;18.43;75.09
65854;DHT22;52627;48.838;2.402;2023-09-18T18:57:06;18.43;75.23
65854;DHT22;52627;48.838;2.402;2023-09-18T18:59:34;18.41;75.36
65854;DHT22;52627;48.838;2.402;2023-09-18T19:02:01;18.41;75.52
65854;DHT22;52627;48.838;2.402;2023-09-18T19:04:31;18.42;75.69
65854;DHT22;52627;48.838;2.402;2023-09-18T19:06:59;18.41;75.77
65854;DHT22;52627;48.838;2.402;2023-09-18T19:09:26;18.43;75.90
65854;DHT22;52627;48.838;2.402;2023-09-18T19:11:54;18.42;75.96
65854;DHT22;52627;48.838;2.402;2023-09-18T19:14:21;18.42;76.08
65854;DHT22;52627;48.838;2.402;2023-09-18T19:16:49;18.41;76.13
65854;DHT22;52627;48.838;2.402;2023-09-18T19:19:16;18.41;76.23
65854;DHT22;52627;48.838;2.402;2023-09-18T19:21:44;18.38;76.27
65854;DHT22;52627;48.838;2.402;2023-09-18T19:24:11;18.35;76.30
65854;DHT22;52627;48.838;2.402;2023-09-18T19:26:39;18.33;76.31
65854;DHT22;52627;48.838;2.402;2023-09-18T19:29:08;18.31;76.33
65854;DHT22;52627;48.838;2.402;2023-09-18T19:31:35;18.30;76.30
65854;DHT22;52627;48.838;2.402;2023-09-18T19:34:03;18.28;76.38
65854;DHT22;52627;48.838;2.402;2023-09-18T19:36:32;18.28;76.52
65854;DHT22;52627;48.838;2.402;2023-09-18T19:38:59;18.26;76.48
65854;DHT22;52627;48.838;2.402;2023-09-18T19:41:27;18.25;76.50
65854;DHT22;52627;48.838;2.402;2023-09-18T19:43:55;18.24;76.48
65854;DHT22;52627;48.838;2.402;2023-09-18T19:46:23;18.24;76.47
65854;DHT22;52627;48.838;2.402;2023-09-18T19:48:51;18.26;76.43
65854;DHT22;52627;48.838;2.402;2023-09-18T19:51:19;18.26;76.45
65854;DHT22;52627;48.838;2.402;2023-09-18T19:53:46;18.25;76.39
65854;DHT22;52627;48.838;2.402;2023-09-18T19:56:13;18.25;76.32
65854;DHT22;52627;48.838;2.402;2023-09-18T19:58:41;18.24;76.32
65854;DHT22;52627;48.838;2.402;2023-09-18T20:01:09;18.24;76.40
65854;DHT22;52627;48.838;2.402;2023-09-18T20:03:37;18.22;76.40
65854;DHT22;52627;48.838;2.402;2023-09-18T20:06:05;18.21;76.46
65854;DHT22;52627;48.838;2.402;2023-09-18T20:08:35;18.21;76.40
65854;DHT22;52627;48.838;2.402;2023-09-18T20:11:04;18.19;76.19
65854;DHT22;52627;48.838;2.402;2023-09-18T20:13:31;18.18;76.11
65854;DHT22;52627;48.838;2.402;2023-09-18T20:16:00;18.16;75.92
65854;DHT22;52627;48.838;2.402;2023-09-18T20:18:28;18.16;75.85
65854;DHT22;52627;48.838;2.402;2023-09-18T20:20:56;18.15;75.78
65854;DHT22;52627;48.838;2.402;2023-09-18T20:23:29;18.15;75.74
65854;DHT22;52627;48.838;2.402;2023-09-18T20:25:57;18.14;75.62
65854;DHT22;52627;48.838;2.402;2023-09-18T20:28:28;18.13;75.66
65854;DHT22;52627;48.838;2.402;2023-09-18T20:30:56;18.13;75.52
65854;DHT22;52627;48.838;2.402;2023-09-18T20:33:24;18.11;75.35
65854;DHT22;52627;48.838;2.402;2023-09-18T20:35:59;18.10;75.22
65854;DHT22;52627;48.838;2.402;2023-09-18T20:38:28;18.09;75.16
65854;DHT22;52627;48.838;2.402;2023-09-18T20:40:56;18.08;75.07
65854;DHT22;52627;48.838;2.402;2023-09-18T20:43:23;18.06;75.05
65854;DHT22;52627;48.838;2.402;2023-09-18T20:45:53;18.06;74.94
65854;DHT22;52627;48.838;2.402;2023-09-18T20:48:21;18.05;74.90
65854;DHT22;52627;48.838;2.402;2023-09-18T20:50:49;18.04;74.71
65854;DHT22;52627;48.838;2.402;2023-09-18T20:53:17;18.03;74.70
65854;DHT22;52627;48.838;2.402;2023-09-18T20:55:45;18.03;74.71
65854;DHT22;52627;48.838;2.402;2023-09-18T20:58:14;18.03;74.60
65854;DHT22;52627;48.838;2.402;2023-09-18T21:00:42;18.02;74.35
65854;DHT22;52627;48.838;2.402;2023-09-18T21:03:09;18.02;74.36
65854;DHT22;52627;48.838;2.402;2023-09-18T21:05:37;18.01;74.32
65854;DHT22;52627;48.838;2.402;2023-09-18T21:08:05;18.03;74.24
65854;DHT22;52627;48.838;2.402;2023-09-18T21:10:32;18.02;74.10
65854;DHT22;52627;48.838;2.402;2023-09-18T21:13:00;18.02;74.07
65854;DHT22;52627;48.838;2.402;2023-09-18T21:15:27;18.02;73.82
65854;DHT22;52627;48.838;2.402;2023-09-18T21:17:55;18.01;73.76
65854;DHT22;52627;48.838;2.402;2023-09-18T21:20:23;18.00;73.51
65854;DHT22;52627;48.838;2.402;2023-09-18T21:22:51;18.00;73.42
65854;DHT22;52627;48.838;2.402;2023-09-18T21:25:18;17.98;73.20
65854;DHT22;52627;48.838;2.402;2023-09-18T21:27:46;17.97;73.05
65854;DHT22;52627;48.838;2.402;2023-09-18T21:30:13;17.95;72.91
65854;DHT22;52627;48.838;2.402;2023-09-18T21:32:41;17.93;72.80
65854;DHT22;52627;48.838;2.402;2023-09-18T21:35:08;17.93;72.73
65854;DHT22;52627;48.838;2.402;2023-09-18T21:37:37;17.91;72.51
65854;DHT22;52627;48.838;2.402;2023-09-18T21:40:05;17.89;72.43
65854;DHT22;52627;48.838;2.402;2023-09-18T21:42:34;17.87;72.42
65854;DHT22;52627;48.838;2.402;2023-09-18T21:45:14;17.84;72.30
65854;DHT22;52627;48.838;2.402;2023-09-18T21:47:42;17.83;72.25
65854;DHT22;52627;48.838;2.402;2023-09-18T21:50:11;17.81;72.20
65854;DHT22;52627;48.838;2.402;2023-09-18T21:52:39;17.79;72.14
65854;DHT22;52627;48.838;2.402;2023-09-18T21:55:07;17.77;72.09
65854;DHT22;52627;48.838;2.402;2023-09-18T21:57:34;17.74;71.92
65854;DHT22;52627;48.838;2.402;2023-09-18T22:00:02;17.72;71.96
65854;DHT22;52627;48.838;2.402;2023-09-18T22:02:50;17.71;71.86
65854;DHT22;52627;48.838;2.402;2023-09-18T22:05:18;17.70;71.89
65854;DHT22;52627;48.838;2.402;2023-09-18T22:07:46;17.68;71.79
65854;DHT22;52627;48.838;2.402;2023-09-18T22:10:14;17.66;71.76
65854;DHT22;52627;48.838;2.402;2023-09-18T22:12:43;17.65;71.77
65854;DHT22;52627;48.838;2.402;2023-09-18T22:15:10;17.63;71.73
65854;DHT22;52627;48.838;2.402;2023-09-18T22:17:41;17.61;71.70
65854;DHT22;52627;48.838;2.402;2023-09-18T22:20:09;17.59;71.68
65854;DHT22;52627;48.838;2.402;2023-09-18T22:22:37;17.58;71.67
65854;DHT22;52627;48.838;2.402;2023-09-18T22:25:05;17.57;71.71
65854;DHT22;52627;48.838;2.402;2023-09-18T22:27:33;17.56;71.74
65854;DHT22;52627;48.838;2.402;2023-09-18T22:30:01;17.54;71.70
65854;DHT22;52627;48.838;2.402;2023-09-18T22:32:28;17.52;71.70
65854;DHT22;52627;48.838;2.402;2023-09-18T22:34:56;17.50;71.64
65854;DHT22;52627;48.838;2.402;2023-09-18T22:37:23;17.49;71.61
65854;DHT22;52627;48.838;2.402;2023-09-18T22:55:16;17.40;71.60
65854;DHT22;52627;48.838;2.402;2023-09-18T22:57:49;17.39;71.59